sensor_id;sensor_type;location;lat;lon;timestamp;temperature;humidity
71801;HTU21D;59647;55.838;37.292;2023-09-30T03:43:26;13.50;80.01
71801;HTU21D;59647;55.838;37.292;2023-09-30T05:05:54;14.98;79.65
71801;HTU21D;59647;55.838;37.292;2023-09-30T05:08:22;15.07;79.14
71801;HTU21D;59647;55.838;37.292;2023-09-30T07:22:25;21.79;61.07
71801;HTU21D;59647;55.838;37.292;2023-09-30T07:25:14;21.75;63.08
71801;HTU21D;59647;55.838;37.292;2023-09-30T07:27:48;21.82;63.27
71801;HTU21D;59647;55.838;37.292;2023-09-30T07:30:27;21.94;63.16
71801;HTU21D;59647;55.838;37.292;2023-09-30T07:33:06;22.06;60.00
71801;HTU21D;59647;55.838;37.292;2023-09-30T07:35:56;22.05;58.86
71801;HTU21D;59647;55.838;37.292;2023-09-30T07:38:28;22.10;62.43
71801;HTU21D;59647;55.838;37.292;2023-09-30T07:41:00;22.19;60.81
71801;HTU21D;59647;55.838;37.292;2023-09-30T07:43:43;22.22;58.94
71801;HTU21D;59647;55.838;37.292;2023-09-30T07:46:18;22.36;62.85
71801;HTU21D;59647;55.838;37.292;2023-09-30T07:48:44;22.50;61.83
71801;HTU21D;59647;55.838;37.292;2023-09-30T07:51:16;22.66;62.81
71801;HTU21D;59647;55.838;37.292;2023-09-30T07:53:49;22.93;62.92
71801;HTU21D;59647;55.838;37.292;2023-09-30T07:56:26;23.23;62.76
71801;HTU21D;59647;55.838;37.292;2023-09-30T07:59:07;23.46;62.11
71801;HTU21D;59647;55.838;37.292;2023-09-30T08:01:40;23.62;54.04
71801;HTU21D;59647;55.838;37.292;2023-09-30T08:04:06;23.72;60.68
71801;HTU21D;59647;55.838;37.292;2023-09-30T08:06:32;23.89;61.18
71801;HTU21D;59647;55.838;37.292;2023-09-30T08:08:59;23.89;58.57
71801;HTU21D;59647;55.838;37.292;2023-09-30T08:11:25;23.95;55.90
71801;HTU21D;59647;55.838;37.292;2023-09-30T08:13:54;23.95;56.76
71801;HTU21D;59647;55.838;37.292;2023-09-30T08:16:20;23.97;58.19
71801;HTU21D;59647;55.838;37.292;2023-09-30T08:19:02;24.12;51.55
71801;HTU21D;59647;55.838;37.292;2023-09-30T08:21:29;24.11;52.93
71801;HTU21D;59647;55.838;37.292;2023-09-30T08:23:57;24.20;57.22
71801;HTU21D;59647;55.838;37.292;2023-09-30T08:26:23;24.28;57.03
71801;HTU21D;59647;55.838;37.292;2023-09-30T08:28:50;24.50;56.15
71801;HTU21D;59647;55.838;37.292;2023-09-30T08:31:16;24.75;57.02
71801;HTU21D;59647;55.838;37.292;2023-09-30T08:33:44;24.89;48.60
71801;HTU21D;59647;55.838;37.292;2023-09-30T08:36:14;24.93;54.18
71801;HTU21D;59647;55.838;37.292;2023-09-30T08:38:41;25.01;55.16
71801;HTU21D;59647;55.838;37.292;2023-09-30T08:41:09;25.16;54.32
71801;HTU21D;59647;55.838;37.292;2023-09-30T08:43:39;25.29;52.39
71801;HTU21D;59647;55.838;37.292;2023-09-30T08:46:07;25.23;48.24
71801;HTU21D;59647;55.838;37.292;2023-09-30T08:48:34;25.17;52.95
71801;HTU21D;59647;55.838;37.292;2023-09-30T08:51:02;25.24;46.79
71801;HTU21D;59647;55.838;37.292;2023-09-30T08:53:32;25.34;47.54
71801;HTU21D;59647;55.838;37.292;2023-09-30T08:55:58;25.47;44.13
71801;HTU21D;59647;55.838;37.292;2023-09-30T08:58:32;25.49;45.63
71801;HTU21D;59647;55.838;37.292;2023-09-30T09:01:03;25.57;50.27
71801;HTU21D;59647;55.838;37.292;2023-09-30T09:03:35;25.62;44.87
71801;HTU21D;59647;55.838;37.292;2023-09-30T09:06:03;25.58;46.57
71801;HTU21D;59647;55.838;37.292;2023-09-30T09:08:29;25.60;44.08
71801;HTU21D;59647;55.838;37.292;2023-09-30T09:10:57;25.47;42.76
71801;HTU21D;59647;55.838;37.292;2023-09-30T09:13:25;25.59;47.56
71801;HTU21D;59647;55.838;37.292;2023-09-30T09:16:09;25.79;45.18
71801;HTU21D;59647;55.838;37.292;2023-09-30T09:18:35;25.94;46.93
71801;HTU21D;59647;55.838;37.292;2023-09-30T09:21:14;26.04;42.03
71801;HTU21D;59647;55.838;37.292;2023-09-30T09:23:46;26.07;47.35
71801;HTU21D;59647;55.838;37.292;2023-09-30T09:26:33;25.86;38.02
71801;HTU21D;59647;55.838;37.292;2023-09-30T09:29:11;25.66;36.94
71801;HTU21D;59647;55.838;37.292;2023-09-30T09:31:41;25.51;39.01
71801;HTU21D;59647;55.838;37.292;2023-09-30T09:34:14;25.51;39.79
71801;HTU21D;59647;55.838;37.292;2023-09-30T09:36:45;25.67;43.71
71801;HTU21D;59647;55.838;37.292;2023-09-30T09:39:29;25.96;45.12
71801;HTU21D;59647;55.838;37.292;2023-09-30T09:42:02;26.13;40.27
71801;HTU21D;59647;55.838;37.292;2023-09-30T09:44:33;26.01;40.87
71801;HTU21D;59647;55.838;37.292;2023-09-30T09:47:04;26.05;40.46
71801;HTU21D;59647;55.838;37.292;2023-09-30T09:49:32;26.17;44.75
71801;HTU21D;59647;55.838;37.292;2023-09-30T09:51:58;26.16;45.12
71801;HTU21D;59647;55.838;37.292;2023-09-30T09:54:27;26.19;44.64
71801;HTU21D;59647;55.838;37.292;2023-09-30T09:56:56;26.25;45.73
71801;HTU21D;59647;55.838;37.292;2023-09-30T09:59:23;26.12;37.75
71801;HTU21D;59647;55.838;37.292;2023-09-30T10:01:51;25.93;37.57
71801;HTU21D;59647;55.838;37.292;2023-09-30T10:04:17;25.82;43.02
71801;HTU21D;59647;55.838;37.292;2023-09-30T10:06:52;25.71;35.92
71801;HTU21D;59647;55.838;37.292;2023-09-30T10:09:18;25.57;40.37
71801;HTU21D;59647;55.838;37.292;2023-09-30T10:11:46;25.50;37.11
71801;HTU21D;59647;55.838;37.292;2023-09-30T10:14:32;25.38;40.01
71801;HTU21D;59647;55.838;37.292;2023-09-30T10:16:59;25.45;43.33
71801;HTU21D;59647;55.838;37.292;2023-09-30T10:19:25;25.56;43.62
71801;HTU21D;59647;55.838;37.292;2023-09-30T10:24:52;25.57;43.25
71801;HTU21D;59647;55.838;37.292;2023-09-30T10:35:21;25.75;42.46
71801;HTU21D;59647;55.838;37.292;2023-09-30T10:37:47;25.59;39.04
71801;HTU21D;59647;55.838;37.292;2023-09-30T10:40:27;25.68;37.90
71801;HTU21D;59647;55.838;37.292;2023-09-30T10:42:53;25.79;43.55
71801;HTU21D;59647;55.838;37.292;2023-09-30T10:48:32;25.75;39.39
71801;HTU21D;59647;55.838;37.292;2023-09-30T10:51:17;25.82;39.39
71801;HTU21D;59647;55.838;37.292;2023-09-30T10:53:53;25.84;42.74
71801;HTU21D;59647;55.838;37.292;2023-09-30T10:56:23;26.03;39.86
71801;HTU21D;59647;55.838;37.292;2023-09-30T10:58:51;26.06;37.05
71801;HTU21D;59647;55.838;37.292;2023-09-30T11:01:22;26.10;39.95
71801;HTU21D;59647;55.838;37.292;2023-09-30T11:03:50;26.04;38.62
71801;HTU21D;59647;55.838;37.292;2023-09-30T11:06:22;25.96;38.32
71801;HTU21D;59647;55.838;37.292;2023-09-30T11:08:54;25.93;35.34
71801;HTU21D;59647;55.838;37.292;2023-09-30T11:11:42;25.86;36.33
71801;HTU21D;59647;55.838;37.292;2023-09-30T11:14:23;25.86;36.72
71801;HTU21D;59647;55.838;37.292;2023-09-30T11:16:50;25.75;36.16
71801;HTU21D;59647;55.838;37.292;2023-09-30T11:19:17;25.84;40.17
71801;HTU21D;59647;55.838;37.292;2023-09-30T11:21:52;25.93;40.52
71801;HTU21D;59647;55.838;37.292;2023-09-30T11:24:18;26.02;38.33
71801;HTU21D;59647;55.838;37.292;2023-09-30T11:26:45;25.93;38.68
71801;HTU21D;59647;55.838;37.292;2023-09-30T11:29:16;25.95;36.72
71801;HTU21D;59647;55.838;37.292;2023-09-30T11:31:47;25.94;37.85
71801;HTU21D;59647;55.838;37.292;2023-09-30T11:34:17;25.99;37.19
71801;HTU21D;59647;55.838;37.292;2023-09-30T11:36:53;26.04;37.59
71801;HTU21D;59647;55.838;37.292;2023-09-30T11:39:24;25.98;39.56
71801;HTU21D;59647;55.838;37.292;2023-09-30T11:41:50;26.04;39.33
71801;HTU21D;59647;55.838;37.292;2023-09-30T11:44:18;25.99;39.23
71801;HTU21D;59647;55.838;37.292;2023-09-30T11:46:55;25.89;36.70
71801;HTU21D;59647;55.838;37.292;2023-09-30T11:51:59;25.62;36.77
71801;HTU21D;59647;55.838;37.292;2023-09-30T11:54:33;25.48;37.14
71801;HTU21D;59647;55.838;37.292;2023-09-30T11:57:00;25.48;35.75
71801;HTU21D;59647;55.838;37.292;2023-09-30T11:59:26;25.49;36.85
71801;HTU21D;59647;55.838;37.292;2023-09-30T12:01:52;25.59;38.50
71801;HTU21D;59647;55.838;37.292;2023-09-30T12:04:18;25.72;36.40
71801;HTU21D;59647;55.838;37.292;2023-09-30T12:06:46;25.75;38.00
71801;HTU21D;59647;55.838;37.292;2023-09-30T12:09:15;25.84;39.69
71801;HTU21D;59647;55.838;37.292;2023-09-30T12:11:43;25.93;39.10
71801;HTU21D;59647;55.838;37.292;2023-09-30T12:14:11;26.06;39.72
71801;HTU21D;59647;55.838;37.292;2023-09-30T12:16:37;26.08;39.32
71801;HTU21D;59647;55.838;37.292;2023-09-30T12:19:03;26.13;39.57
71801;HTU21D;59647;55.838;37.292;2023-09-30T12:21:31;26.12;38.88
71801;HTU21D;59647;55.838;37.292;2023-09-30T12:23:57;25.96;38.23
71801;HTU21D;59647;55.838;37.292;2023-09-30T12:26:24;26.08;39.96
71801;HTU21D;59647;55.838;37.292;2023-09-30T12:28:50;26.25;40.13
71801;HTU21D;59647;55.838;37.292;2023-09-30T12:31:16;26.39;37.48
71801;HTU21D;59647;55.838;37.292;2023-09-30T12:33:44;26.34;37.10
71801;HTU21D;59647;55.838;37.292;2023-09-30T12:36:09;26.37;39.46
71801;HTU21D;59647;55.838;37.292;2023-09-30T12:38:38;26.55;40.02
71801;HTU21D;59647;55.838;37.292;2023-09-30T12:41:04;26.69;36.84
71801;HTU21D;59647;55.838;37.292;2023-09-30T12:43:30;26.53;38.43
71801;HTU21D;59647;55.838;37.292;2023-09-30T12:45:56;26.56;37.64
71801;HTU21D;59647;55.838;37.292;2023-09-30T12:48:22;26.60;39.73
71801;HTU21D;59647;55.838;37.292;2023-09-30T12:50:48;26.70;39.69
71801;HTU21D;59647;55.838;37.292;2023-09-30T12:53:14;26.76;39.84
71801;HTU21D;59647;55.838;37.292;2023-09-30T12:55:41;26.72;39.35
71801;HTU21D;59647;55.838;37.292;2023-09-30T12:58:07;26.72;39.23
71801;HTU21D;59647;55.838;37.292;2023-09-30T13:00:34;26.61;39.31
71801;HTU21D;59647;55.838;37.292;2023-09-30T13:03:02;26.48;38.82
71801;HTU21D;59647;55.838;37.292;2023-09-30T13:05:28;26.11;35.75
71801;HTU21D;59647;55.838;37.292;2023-09-30T13:07:57;25.95;37.85
71801;HTU21D;59647;55.838;37.292;2023-09-30T13:10:23;25.78;39.93
71801;HTU21D;59647;55.838;37.292;2023-09-30T13:12:50;25.64;40.24
71801;HTU21D;59647;55.838;37.292;2023-09-30T13:15:16;25.59;40.19
71801;HTU21D;59647;55.838;37.292;2023-09-30T13:17:42;25.59;40.45
71801;HTU21D;59647;55.838;37.292;2023-09-30T13:20:09;25.51;39.60
71801;HTU21D;59647;55.838;37.292;2023-09-30T13:22:38;25.51;40.22
71801;HTU21D;59647;55.838;37.292;2023-09-30T13:25:05;25.62;41.19
71801;HTU21D;59647;55.838;37.292;2023-09-30T13:27:32;25.74;41.24
71801;HTU21D;59647;55.838;37.292;2023-09-30T13:29:58;25.78;41.16
71801;HTU21D;59647;55.838;37.292;2023-09-30T13:32:25;25.75;39.27
71801;HTU21D;59647;55.838;37.292;2023-09-30T13:34:51;25.75;40.81
71801;HTU21D;59647;55.838;37.292;2023-09-30T13:37:18;25.77;41.16
71801;HTU21D;59647;55.838;37.292;2023-09-30T13:39:44;25.80;41.06
71801;HTU21D;59647;55.838;37.292;2023-09-30T13:42:11;25.76;41.35
71801;HTU21D;59647;55.838;37.292;2023-09-30T13:44:37;25.74;41.52
71801;HTU21D;59647;55.838;37.292;2023-09-30T13:47:03;25.80;41.59
71801;HTU21D;59647;55.838;37.292;2023-09-30T13:49:29;25.81;41.63
71801;HTU21D;59647;55.838;37.292;2023-09-30T13:51:56;25.80;41.50
71801;HTU21D;59647;55.838;37.292;2023-09-30T13:54:22;25.74;41.64
71801;HTU21D;59647;55.838;37.292;2023-09-30T13:56:49;25.66;41.83
71801;HTU21D;59647;55.838;37.292;2023-09-30T13:59:15;25.67;41.95
71801;HTU21D;59647;55.838;37.292;2023-09-30T14:01:41;25.68;42.09
71801;HTU21D;59647;55.838;37.292;2023-09-30T14:04:08;25.69;42.13
71801;HTU21D;59647;55.838;37.292;2023-09-30T14:06:34;25.65;42.14
71801;HTU21D;59647;55.838;37.292;2023-09-30T14:09:01;25.59;42.21
71801;HTU21D;59647;55.838;37.292;2023-09-30T14:11:27;25.50;42.33
71801;HTU21D;59647;55.838;37.292;2023-09-30T14:13:53;25.40;42.42
71801;HTU21D;59647;55.838;37.292;2023-09-30T14:16:20;25.28;42.51
71801;HTU21D;59647;55.838;37.292;2023-09-30T14:18:46;25.16;42.80
71801;HTU21D;59647;55.838;37.292;2023-09-30T14:21:15;25.04;43.08
71801;HTU21D;59647;55.838;37.292;2023-09-30T14:23:40;24.93;43.29
71801;HTU21D;59647;55.838;37.292;2023-09-30T14:26:06;24.85;43.45
71801;HTU21D;59647;55.838;37.292;2023-09-30T14:28:37;24.74;43.59
71801;HTU21D;59647;55.838;37.292;2023-09-30T14:31:04;24.61;43.81
71801;HTU21D;59647;55.838;37.292;2023-09-30T14:33:30;24.51;43.96
71801;HTU21D;59647;55.838;37.292;2023-09-30T14:35:57;24.40;44.13
71801;HTU21D;59647;55.838;37.292;2023-09-30T14:38:23;24.31;44.25
71801;HTU21D;59647;55.838;37.292;2023-09-30T14:40:49;24.15;44.43
71801;HTU21D;59647;55.838;37.292;2023-09-30T14:43:16;24.05;44.61
71801;HTU21D;59647;55.838;37.292;2023-09-30T14:45:42;23.95;44.78
71801;HTU21D;59647;55.838;37.292;2023-09-30T14:48:08;23.84;44.96
71801;HTU21D;59647;55.838;37.292;2023-09-30T14:50:35;23.71;45.16
71801;HTU21D;59647;55.838;37.292;2023-09-30T14:53:04;23.61;45.29
71801;HTU21D;59647;55.838;37.292;2023-09-30T14:55:33;23.51;45.52
71801;HTU21D;59647;55.838;37.292;2023-09-30T14:57:59;23.42;45.61
71801;HTU21D;59647;55.838;37.292;2023-09-30T15:00:25;23.30;45.83
71801;HTU21D;59647;55.838;37.292;2023-09-30T15:02:54;23.23;46.03
71801;HTU21D;59647;55.838;37.292;2023-09-30T15:05:20;23.12;46.15
71801;HTU21D;59647;55.838;37.292;2023-09-30T15:28:12;22.35;47.54
71801;HTU21D;59647;55.838;37.292;2023-09-30T15:30:39;22.24;47.79
71801;HTU21D;59647;55.838;37.292;2023-09-30T15:33:05;22.17;47.92
71801;HTU21D;59647;55.838;37.292;2023-09-30T15:35:31;22.07;48.12
71801;HTU21D;59647;55.838;37.292;2023-09-30T15:37:57;21.99;48.30
71801;HTU21D;59647;55.838;37.292;2023-09-30T15:40:24;21.92;48.49
71801;HTU21D;59647;55.838;37.292;2023-09-30T15:42:50;21.84;48.70
71801;HTU21D;59647;55.838;37.292;2023-09-30T15:45:17;21.77;48.76
71801;HTU21D;59647;55.838;37.292;2023-09-30T15:47:44;21.69;48.99
71801;HTU21D;59647;55.838;37.292;2023-09-30T15:50:10;21.62;49.11
71801;HTU21D;59647;55.838;37.292;2023-09-30T15:52:37;21.54;49.31
71801;HTU21D;59647;55.838;37.292;2023-09-30T15:55:03;21.47;49.47
71801;HTU21D;59647;55.838;37.292;2023-09-30T15:57:29;21.43;49.56
71801;HTU21D;59647;55.838;37.292;2023-09-30T16:00:08;21.36;49.85
71801;HTU21D;59647;55.838;37.292;2023-09-30T16:02:35;21.29;49.89
71801;HTU21D;59647;55.838;37.292;2023-09-30T16:05:01;21.23;50.04
71801;HTU21D;59647;55.838;37.292;2023-09-30T16:07:29;21.17;50.17
71801;HTU21D;59647;55.838;37.292;2023-09-30T16:09:55;21.13;50.29
71801;HTU21D;59647;55.838;37.292;2023-09-30T16:12:21;21.07;50.33
71801;HTU21D;59647;55.838;37.292;2023-09-30T16:14:47;21.03;50.52
71801;HTU21D;59647;55.838;37.292;2023-09-30T16:17:13;20.96;50.63
71801;HTU21D;59647;55.838;37.292;2023-09-30T16:47:26;20.34;52.01
71801;HTU21D;59647;55.838;37.292;2023-09-30T16:49:52;20.32;52.04
71801;HTU21D;59647;55.838;37.292;2023-09-30T16:52:18;20.25;52.31
71801;HTU21D;59647;55.838;37.292;2023-09-30T16:54:44;20.21;52.63
71801;HTU21D;59647;55.838;37.292;2023-09-30T16:57:10;20.17;52.70
71801;HTU21D;59647;55.838;37.292;2023-09-30T16:59:36;20.12;52.74
71801;HTU21D;59647;55.838;37.292;2023-09-30T17:02:02;20.07;52.78
71801;HTU21D;59647;55.838;37.292;2023-09-30T17:04:29;20.05;52.88
71801;HTU21D;59647;55.838;37.292;2023-09-30T17:06:55;20.01;52.92
71801;HTU21D;59647;55.838;37.292;2023-09-30T17:09:21;19.99;53.07
71801;HTU21D;59647;55.838;37.292;2023-09-30T17:11:47;19.91;53.14
71801;HTU21D;59647;55.838;37.292;2023-09-30T17:14:13;19.90;53.13
71801;HTU21D;59647;55.838;37.292;2023-09-30T17:16:39;19.89;53.25
71801;HTU21D;59647;55.838;37.292;2023-09-30T17:19:05;19.85;53.29
71801;HTU21D;59647;55.838;37.292;2023-09-30T17:21:31;19.82;53.52
71801;HTU21D;59647;55.838;37.292;2023-09-30T18:50:54;19.28;56.64
71801;HTU21D;59647;55.838;37.292;2023-09-30T18:53:20;19.28;56.74
71801;HTU21D;59647;55.838;37.292;2023-09-30T18:55:47;19.26;57.78
71801;HTU21D;59647;55.838;37.292;2023-09-30T18:58:14;19.27;57.12
71801;HTU21D;59647;55.838;37.292;2023-09-30T19:00:42;19.27;57.78
71801;HTU21D;59647;55.838;37.292;2023-09-30T19:03:12;19.29;57.28
71801;HTU21D;59647;55.838;37.292;2023-09-30T19:05:42;19.28;57.55
71801;HTU21D;59647;55.838;37.292;2023-09-30T19:08:11;19.28;57.77
71801;HTU21D;59647;55.838;37.292;2023-09-30T19:10:39;19.28;57.26
71801;HTU21D;59647;55.838;37.292;2023-09-30T19:13:07;19.25;58.17
71801;HTU21D;59647;55.838;37.292;2023-09-30T19:15:33;19.25;57.39
71801;HTU21D;59647;55.838;37.292;2023-09-30T19:17:59;19.25;57.45
71801;HTU21D;59647;55.838;37.292;2023-09-30T19:20:25;19.24;57.39
71801;HTU21D;59647;55.838;37.292;2023-09-30T19:22:52;19.24;57.83
71801;HTU21D;59647;55.838;37.292;2023-09-30T19:25:19;19.24;57.90
71801;HTU21D;59647;55.838;37.292;2023-09-30T19:27:45;19.23;57.87
71801;HTU21D;59647;55.838;37.292;2023-09-30T19:30:11;19.24;57.97
71801;HTU21D;59647;55.838;37.292;2023-09-30T19:32:40;19.24;57.91
71801;HTU21D;59647;55.838;37.292;2023-09-30T19:35:07;19.24;57.89
71801;HTU21D;59647;55.838;37.292;2023-09-30T19:37:40;19.25;57.84
71801;HTU21D;59647;55.838;37.292;2023-09-30T19:40:06;19.21;58.06
71801;HTU21D;59647;55.838;37.292;2023-09-30T19:42:33;19.21;57.97
71801;HTU21D;59647;55.838;37.292;2023-09-30T19:45:01;19.16;58.07
71801;HTU21D;59647;55.838;37.292;2023-09-30T19:47:31;19.11;58.99
71801;HTU21D;59647;55.838;37.292;2023-09-30T19:49:57;19.07;58.54
71801;HTU21D;59647;55.838;37.292;2023-09-30T19:52:23;19.08;58.39
71801;HTU21D;59647;55.838;37.292;2023-09-30T19:54:54;19.03;58.81
71801;HTU21D;59647;55.838;37.292;2023-09-30T19:57:20;18.99;59.19
71801;HTU21D;59647;55.838;37.292;2023-09-30T19:59:46;18.95;59.03
71801;HTU21D;59647;55.838;37.292;2023-09-30T20:02:13;18.94;58.84
71801;HTU21D;59647;55.838;37.292;2023-09-30T20:04:42;18.92;59.22
71801;HTU21D;59647;55.838;37.292;2023-09-30T20:07:08;18.87;59.02
71801;HTU21D;59647;55.838;37.292;2023-09-30T20:09:37;18.85;59.12
71801;HTU21D;59647;55.838;37.292;2023-09-30T20:12:06;18.83;59.18
71801;HTU21D;59647;55.838;37.292;2023-09-30T20:14:33;18.82;59.10
71801;HTU21D;59647;55.838;37.292;2023-09-30T20:16:59;18.78;59.50
71801;HTU21D;59647;55.838;37.292;2023-09-30T20:19:26;18.74;59.40
71801;HTU21D;59647;55.838;37.292;2023-09-30T20:21:52;18.72;59.79
71801;HTU21D;59647;55.838;37.292;2023-09-30T20:24:18;18.70;59.64
71801;HTU21D;59647;55.838;37.292;2023-09-30T20:26:44;18.68;59.50
71801;HTU21D;59647;55.838;37.292;2023-09-30T20:29:10;18.67;59.54
71801;HTU21D;59647;55.838;37.292;2023-09-30T20:31:36;18.67;59.41
71801;HTU21D;59647;55.838;37.292;2023-09-30T20:34:03;18.64;59.74
71801;HTU21D;59647;55.838;37.292;2023-09-30T20:36:30;18.61;59.75
71801;HTU21D;59647;55.838;37.292;2023-09-30T20:38:56;18.58;60.22
71801;HTU21D;59647;55.838;37.292;2023-09-30T20:41:24;18.55;60.12
71801;HTU21D;59647;55.838;37.292;2023-09-30T20:43:51;18.54;60.29
71801;HTU21D;59647;55.838;37.292;2023-09-30T20:46:17;18.51;60.32
71801;HTU21D;59647;55.838;37.292;2023-09-30T20:48:43;18.49;60.54
71801;HTU21D;59647;55.838;37.292;2023-09-30T20:51:11;18.44;60.64
71801;HTU21D;59647;55.838;37.292;2023-09-30T20:53:38;18.41;60.55
71801;HTU21D;59647;55.838;37.292;2023-09-30T20:56:12;18.38;61.11
71801;HTU21D;59647;55.838;37.292;2023-09-30T20:58:38;18.34;60.99
71801;HTU21D;59647;55.838;37.292;2023-09-30T21:01:06;18.33;60.67
71801;HTU21D;59647;55.838;37.292;2023-09-30T21:03:33;18.29;60.78
71801;HTU21D;59647;55.838;37.292;2023-09-30T21:06:04;18.25;61.78
71801;HTU21D;59647;55.838;37.292;2023-09-30T21:08:35;18.22;61.21
71801;HTU21D;59647;55.838;37.292;2023-09-30T21:11:07;18.22;62.05
71801;HTU21D;59647;55.838;37.292;2023-09-30T21:13:34;18.20;61.12
71801;HTU21D;59647;55.838;37.292;2023-09-30T21:16:00;18.18;61.15
71801;HTU21D;59647;55.838;37.292;2023-09-30T21:18:30;18.17;61.38
71801;HTU21D;59647;55.838;37.292;2023-09-30T21:20:56;18.15;61.38
71801;HTU21D;59647;55.838;37.292;2023-09-30T21:23:23;18.13;61.57
71801;HTU21D;59647;55.838;37.292;2023-09-30T21:25:49;18.13;61.36
71801;HTU21D;59647;55.838;37.292;2023-09-30T21:28:16;18.11;61.86
71801;HTU21D;59647;55.838;37.292;2023-09-30T21:30:43;18.12;61.74
71801;HTU21D;59647;55.838;37.292;2023-09-30T21:33:09;18.08;61.64
71801;HTU21D;59647;55.838;37.292;2023-09-30T21:35:36;18.06;61.70
71801;HTU21D;59647;55.838;37.292;2023-09-30T21:38:02;18.05;61.73
71801;HTU21D;59647;55.838;37.292;2023-09-30T21:40:29;18.02;61.92
71801;HTU21D;59647;55.838;37.292;2023-09-30T21:42:55;17.98;61.90
71801;HTU21D;59647;55.838;37.292;2023-09-30T21:45:20;17.95;62.12
71801;HTU21D;59647;55.838;37.292;2023-09-30T21:47:46;17.92;62.18
71801;HTU21D;59647;55.838;37.292;2023-09-30T21:50:12;17.91;62.44
71801;HTU21D;59647;55.838;37.292;2023-09-30T21:52:38;17.89;62.50
71801;HTU21D;59647;55.838;37.292;2023-09-30T21:55:05;17.84;62.71
71801;HTU21D;59647;55.838;37.292;2023-09-30T21:57:31;17.82;62.24
71801;HTU21D;59647;55.838;37.292;2023-09-30T21:59:57;17.81;62.90
71801;HTU21D;59647;55.838;37.292;2023-09-30T22:02:23;17.77;62.97
71801;HTU21D;59647;55.838;37.292;2023-09-30T22:04:49;17.74;62.70
71801;HTU21D;59647;55.838;37.292;2023-09-30T22:07:15;17.69;64.56
71801;HTU21D;59647;55.838;37.292;2023-09-30T22:09:41;17.66;63.89
71801;HTU21D;59647;55.838;37.292;2023-09-30T22:12:07;17.63;63.44
71801;HTU21D;59647;55.838;37.292;2023-09-30T22:14:33;17.63;63.08
71801;HTU21D;59647;55.838;37.292;2023-09-30T22:16:59;17.61;63.31
71801;HTU21D;59647;55.838;37.292;2023-09-30T22:19:25;17.60;63.24
71801;HTU21D;59647;55.838;37.292;2023-09-30T22:21:51;17.56;63.53
71801;HTU21D;59647;55.838;37.292;2023-09-30T22:24:17;17.54;63.57
71801;HTU21D;59647;55.838;37.292;2023-09-30T22:26:44;17.53;63.55
71801;HTU21D;59647;55.838;37.292;2023-09-30T22:29:10;17.52;63.61
71801;HTU21D;59647;55.838;37.292;2023-09-30T22:31:37;17.49;63.66
71801;HTU21D;59647;55.838;37.292;2023-09-30T22:34:03;17.47;63.96
71801;HTU21D;59647;55.838;37.292;2023-09-30T22:36:30;17.46;63.91
71801;HTU21D;59647;55.838;37.292;2023-09-30T22:38:56;17.45;63.82
71801;HTU21D;59647;55.838;37.292;2023-09-30T22:41:22;17.43;65.34
71801;HTU21D;59647;55.838;37.292;2023-09-30T22:43:48;17.40;64.49
71801;HTU21D;59647;55.838;37.292;2023-09-30T22:46:15;17.37;65.35
71801;HTU21D;59647;55.838;37.292;2023-09-30T22:48:41;17.35;65.47
71801;HTU21D;59647;55.838;37.292;2023-09-30T22:51:11;17.33;65.08
71801;HTU21D;59647;55.838;37.292;2023-09-30T22:53:37;17.32;64.67
71801;HTU21D;59647;55.838;37.292;2023-09-30T22:56:04;17.31;64.86
71801;HTU21D;59647;55.838;37.292;2023-09-30T22:58:31;17.29;65.66
71801;HTU21D;59647;55.838;37.292;2023-09-30T23:00:57;17.25;65.19
71801;HTU21D;59647;55.838;37.292;2023-09-30T23:03:23;17.24;64.82
71801;HTU21D;59647;55.838;37.292;2023-09-30T23:05:49;17.23;65.65
71801;HTU21D;59647;55.838;37.292;2023-09-30T23:08:15;17.22;65.43
71801;HTU21D;59647;55.838;37.292;2023-09-30T23:10:42;17.19;65.98
71801;HTU21D;59647;55.838;37.292;2023-09-30T23:13:08;17.20;65.17
71801;HTU21D;59647;55.838;37.292;2023-09-30T23:15:35;17.19;65.30
71801;HTU21D;59647;55.838;37.292;2023-09-30T23:18:01;17.17;65.72
71801;HTU21D;59647;55.838;37.292;2023-09-30T23:20:28;17.11;65.59
71801;HTU21D;59647;55.838;37.292;2023-09-30T23:22:55;17.11;66.14
71801;HTU21D;59647;55.838;37.292;2023-09-30T23:25:25;17.10;67.16
71801;HTU21D;59647;55.838;37.292;2023-09-30T23:27:58;17.09;66.86
71801;HTU21D;59647;55.838;37.292;2023-09-30T23:30:28;17.10;66.88
71801;HTU21D;59647;55.838;37.292;2023-09-30T23:32:56;17.07;66.30
71801;HTU21D;59647;55.838;37.292;2023-09-30T23:35:24;17.07;66.24
71801;HTU21D;59647;55.838;37.292;2023-09-30T23:37:56;17.04;67.31
71801;HTU21D;59647;55.838;37.292;2023-09-30T23:40:30;17.04;66.72
71801;HTU21D;59647;55.838;37.292;2023-09-30T23:42:58;17.04;66.72
71801;HTU21D;59647;55.838;37.292;2023-09-30T23:45:26;17.02;66.57
71801;HTU21D;59647;55.838;37.292;2023-09-30T23:47:53;16.99;67.48
71801;HTU21D;59647;55.838;37.292;2023-09-30T23:50:20;16.98;66.75
71801;HTU21D;59647;55.838;37.292;2023-09-30T23:52:53;16.98;66.64
71801;HTU21D;59647;55.838;37.292;2023-09-30T23:55:24;16.95;67.51
71801;HTU21D;59647;55.838;37.292;2023-09-30T23:57:54;16.93;67.23
